createdAt,value
2022-09-28T00:01:20.439Z,14.80
2022-09-28T00:03:49.242Z,14.80
2022-09-28T00:06:24.455Z,14.80
2022-09-28T00:08:51.495Z,14.80
2022-09-28T00:11:20.990Z,14.80
2022-09-28T00:13:53.340Z,14.80
2022-09-28T00:16:22.554Z,14.80
2022-09-28T00:18:51.084Z,14.80
2022-09-28T00:21:25.107Z,14.80
2022-09-28T00:24:12.299Z,14.80
2022-09-28T00:26:47.800Z,14.80
2022-09-28T00:29:35.725Z,14.80
2022-09-28T00:32:05.106Z,14.90
2022-09-28T00:34:35.004Z,14.90
2022-09-28T00:37:03.452Z,14.90
2022-09-28T00:39:34.314Z,14.80
2022-09-28T00:42:02.541Z,14.80
2022-09-28T00:44:38.345Z,14.80
2022-09-28T00:47:09.951Z,14.80
2022-09-28T00:50:08.863Z,14.80
2022-09-28T00:52:42.899Z,14.80
2022-09-28T00:55:14.186Z,14.80
2022-09-28T00:57:46.012Z,14.80
2022-09-28T01:00:13.779Z,14.80
2022-09-28T01:02:41.640Z,14.80
2022-09-28T01:05:10.372Z,14.80
2022-09-28T01:07:38.158Z,14.80
2022-09-28T01:10:07.203Z,14.80
2022-09-28T01:12:34.137Z,14.80
2022-09-28T01:15:01.917Z,14.70
2022-09-28T01:17:55.376Z,14.80
2022-09-28T01:20:47.253Z,14.70
2022-09-28T01:23:41.375Z,14.70
2022-09-28T01:26:39.715Z,14.70
2022-09-28T01:29:19.008Z,14.70
2022-09-28T01:31:53.631Z,14.70
2022-09-28T01:34:38.875Z,14.70
2022-09-28T01:37:09.670Z,14.70
2022-09-28T01:39:41.152Z,14.70
2022-09-28T01:42:23.212Z,14.70
2022-09-28T01:44:52.528Z,14.70
2022-09-28T01:47:24.058Z,14.70
2022-09-28T01:49:59.376Z,14.70
2022-09-28T01:52:36.317Z,14.70
2022-09-28T01:55:12.145Z,14.70
2022-09-28T01:57:50.257Z,14.70
2022-09-28T02:00:19.109Z,14.70
2022-09-28T02:03:20.804Z,14.70
2022-09-28T02:06:00.188Z,14.70
2022-09-28T02:08:33.408Z,14.70
2022-09-28T02:11:19.275Z,14.70
2022-09-28T02:14:15.383Z,14.70
2022-09-28T02:16:47.001Z,14.70
2022-09-28T02:19:19.783Z,14.70
2022-09-28T02:22:14.615Z,14.80
2022-09-28T02:25:17.927Z,14.70
2022-09-28T02:27:51.725Z,14.70
2022-09-28T02:30:19.023Z,14.80
2022-09-28T02:32:51.504Z,14.80
2022-09-28T02:35:19.780Z,14.80
2022-09-28T02:37:46.882Z,14.80
2022-09-28T02:40:23.729Z,14.80
2022-09-28T02:43:12.815Z,14.80
2022-09-28T02:45:39.592Z,14.90
2022-09-28T02:48:47.215Z,14.90
2022-09-28T02:51:36.151Z,14.90
2022-09-28T02:54:26.990Z,14.90
2022-09-28T02:57:10.959Z,14.90
2022-09-28T03:00:05.859Z,14.90
2022-09-28T03:02:42.307Z,14.90
2022-09-28T03:05:12.606Z,14.90
2022-09-28T03:08:03.475Z,14.90
2022-09-28T03:10:50.525Z,14.90
2022-09-28T03:13:18.478Z,14.90
2022-09-28T03:15:48.608Z,14.90
2022-09-28T03:18:16.866Z,14.80
2022-09-28T03:20:43.972Z,14.90
2022-09-28T03:23:24.376Z,14.80
2022-09-28T03:25:51.799Z,14.90
2022-09-28T03:28:18.599Z,14.90
2022-09-28T03:30:45.421Z,14.80
2022-09-28T03:33:12.298Z,14.90
2022-09-28T03:35:39.152Z,14.90
2022-09-28T03:38:05.902Z,14.90
2022-09-28T03:40:35.258Z,14.90
2022-09-28T03:43:02.558Z,14.90
2022-09-28T03:45:29.592Z,14.90
2022-09-28T03:47:56.449Z,14.90
2022-09-28T03:50:23.283Z,14.90
2022-09-28T03:52:50.137Z,14.90
2022-09-28T03:55:17.010Z,14.90
2022-09-28T03:57:43.885Z,14.90
2022-09-28T04:00:11.328Z,14.90
2022-09-28T04:02:41.686Z,14.90
2022-09-28T04:05:09.347Z,14.90
2022-09-28T04:07:37.711Z,14.90
2022-09-28T04:10:05.014Z,15.00
2022-09-28T04:12:32.301Z,14.90
2022-09-28T04:14:59.043Z,15.00
2022-09-28T04:17:25.871Z,15.00
2022-09-28T04:19:52.999Z,15.00
2022-09-28T04:22:26.631Z,15.00
2022-09-28T04:24:53.442Z,15.00
2022-09-28T04:27:38.729Z,15.00
2022-09-28T04:30:06.003Z,15.00
2022-09-28T04:32:34.443Z,15.00
2022-09-28T04:35:01.478Z,15.00
2022-09-28T04:37:31.187Z,15.00
2022-09-28T04:39:58.628Z,15.00
2022-09-28T04:42:25.561Z,15.00
2022-09-28T04:44:52.451Z,15.00
2022-09-28T04:47:19.299Z,15.00
2022-09-28T04:50:04.907Z,15.00
2022-09-28T04:52:36.839Z,14.90
2022-09-28T04:55:04.895Z,14.90
2022-09-28T04:57:36.203Z,14.90
2022-09-28T05:00:04.439Z,14.90
2022-09-28T05:02:34.142Z,14.80
2022-09-28T05:05:36.336Z,14.80
2022-09-28T05:08:23.761Z,14.80
2022-09-28T05:11:01.062Z,14.80
2022-09-28T05:13:28.806Z,14.80
2022-09-28T05:16:01.753Z,14.80
2022-09-28T05:18:31.783Z,14.80
2022-09-28T05:21:03.857Z,14.70
2022-09-28T05:23:32.767Z,14.70
2022-09-28T05:26:02.347Z,14.70
2022-09-28T05:28:32.403Z,14.70
2022-09-28T05:31:28.419Z,14.70
2022-09-28T05:34:30.874Z,14.70
2022-09-28T05:36:57.852Z,14.70
2022-09-28T05:39:24.679Z,14.70
2022-09-28T05:41:51.477Z,14.70
2022-09-28T05:44:18.329Z,14.70
2022-09-28T05:46:45.270Z,14.70
2022-09-28T05:49:13.735Z,14.70
2022-09-28T05:51:40.614Z,14.70
2022-09-28T05:54:08.962Z,14.70
2022-09-28T05:56:39.735Z,14.80
2022-09-28T05:59:07.750Z,14.80
2022-09-28T06:01:34.641Z,14.80
2022-09-28T06:04:02.330Z,14.80
2022-09-28T06:06:29.211Z,14.90
2022-09-28T06:08:56.889Z,14.90
2022-09-28T06:11:50.960Z,14.90
2022-09-28T06:14:24.686Z,14.90
2022-09-28T06:16:52.771Z,14.90
2022-09-28T06:19:19.632Z,14.90
2022-09-28T06:22:04.657Z,14.90
2022-09-28T06:24:34.685Z,14.90
2022-09-28T06:27:01.778Z,14.90
2022-09-28T06:29:29.267Z,15.00
2022-09-28T06:31:57.174Z,15.00
2022-09-28T06:34:24.821Z,15.00
2022-09-28T06:36:52.020Z,15.00
2022-09-28T06:39:18.881Z,15.00
2022-09-28T06:41:45.752Z,15.00
2022-09-28T06:44:15.631Z,15.00
2022-09-28T06:47:17.924Z,15.10
2022-09-28T06:50:12.358Z,15.20
2022-09-28T06:53:17.526Z,15.30
2022-09-28T06:55:50.350Z,15.50
2022-09-28T06:58:19.977Z,15.60
2022-09-28T07:00:48.751Z,15.80
2022-09-28T07:03:17.928Z,15.90
2022-09-28T07:05:59.530Z,16.00
2022-09-28T07:08:39.174Z,16.10
2022-09-28T07:11:29.737Z,16.20
2022-09-28T07:14:23.925Z,16.30
2022-09-28T07:17:12.684Z,16.40
2022-09-28T07:19:41.091Z,16.50
2022-09-28T07:22:08.029Z,16.70
2022-09-28T07:24:35.178Z,16.80
2022-09-28T07:27:34.459Z,17.00
2022-09-28T07:30:28.184Z,17.10
2022-09-28T07:33:17.907Z,17.20
2022-09-28T07:35:55.572Z,17.20
2022-09-28T07:38:28.704Z,17.20
2022-09-28T07:41:11.931Z,17.30
2022-09-28T07:43:44.046Z,17.30
2022-09-28T07:46:14.462Z,17.40
2022-09-28T07:48:49.496Z,17.40
2022-09-28T07:51:33.033Z,17.40
2022-09-28T07:54:17.900Z,17.40
2022-09-28T07:57:10.664Z,17.30
2022-09-28T07:59:54.595Z,17.30
2022-09-28T08:02:41.000Z,17.30
2022-09-28T08:05:10.418Z,17.30
2022-09-28T08:07:38.435Z,17.30
2022-09-28T08:10:09.085Z,17.30
2022-09-28T08:13:01.974Z,17.40
2022-09-28T08:15:38.660Z,17.50
2022-09-28T08:18:19.379Z,17.70
2022-09-28T08:21:04.966Z,17.80
2022-09-28T08:23:31.846Z,18.00
2022-09-28T08:25:59.029Z,18.10
2022-09-28T08:28:26.305Z,18.10
2022-09-28T08:31:00.684Z,18.20
2022-09-28T08:33:46.078Z,18.20
2022-09-28T08:36:34.429Z,18.20
2022-09-28T08:39:01.268Z,18.20
2022-09-28T08:41:35.223Z,18.20
2022-09-28T08:44:15.854Z,18.20
2022-09-28T08:47:06.300Z,18.10
2022-09-28T08:52:51.310Z,18.10
2022-09-28T08:55:39.564Z,18.10
2022-09-28T08:58:22.283Z,18.10
2022-09-28T09:00:50.103Z,18.10
2022-09-28T09:03:23.732Z,18.10
2022-09-28T09:06:42.008Z,18.10
2022-09-28T09:10:19.224Z,18.20
2022-09-28T09:13:33.715Z,18.20
2022-09-28T09:16:28.241Z,18.20
2022-09-28T09:20:11.068Z,18.20
2022-09-28T09:23:28.404Z,18.30
2022-09-28T09:26:03.632Z,18.40
2022-09-28T09:28:58.729Z,18.40
2022-09-28T09:31:36.247Z,18.50
2022-09-28T09:34:20.979Z,18.50
2022-09-28T09:37:18.588Z,18.60
2022-09-28T09:40:15.720Z,18.60
2022-09-28T09:43:26.688Z,18.60
2022-09-28T09:46:10.943Z,18.70
2022-09-28T09:49:06.735Z,18.80
2022-09-28T09:51:48.779Z,18.80
2022-09-28T09:54:43.659Z,18.90
2022-09-28T09:57:25.691Z,18.90
2022-09-28T10:00:04.493Z,18.90
2022-09-28T10:03:00.501Z,18.80
2022-09-28T10:05:39.002Z,18.80
2022-09-28T10:08:08.833Z,18.90
2022-09-28T10:10:40.280Z,18.90
2022-09-28T10:13:10.057Z,18.90
2022-09-28T10:15:37.292Z,19.00
2022-09-28T10:18:16.602Z,19.00
2022-09-28T10:21:02.069Z,19.10
2022-09-28T10:23:39.291Z,19.20
2022-09-28T10:26:25.325Z,19.20
2022-09-28T10:29:03.176Z,19.20
2022-09-28T10:31:43.417Z,19.30
2022-09-28T10:34:30.523Z,19.30
2022-09-28T10:37:07.105Z,19.40
2022-09-28T10:40:30.717Z,19.40
2022-09-28T10:43:26.962Z,19.40
2022-09-28T10:46:14.723Z,19.40
2022-09-28T10:49:04.598Z,19.40
2022-09-28T10:51:45.312Z,19.40
2022-09-28T10:54:20.424Z,19.30
2022-09-28T10:56:51.614Z,19.30
2022-09-28T10:59:42.421Z,19.20
2022-09-28T11:02:37.663Z,19.20
2022-09-28T11:05:21.941Z,19.10
2022-09-28T11:07:49.852Z,19.00
2022-09-28T11:10:27.317Z,19.00
2022-09-28T11:12:58.879Z,18.90
2022-09-28T11:15:33.138Z,18.90
2022-09-28T11:18:22.332Z,18.90
2022-09-28T11:20:49.714Z,18.90
2022-09-28T11:23:20.562Z,18.90
2022-09-28T11:26:04.445Z,18.90
2022-09-28T11:28:35.922Z,18.90
2022-09-28T11:31:08.814Z,19.00
2022-09-28T11:34:12.651Z,19.00
2022-09-28T11:37:13.488Z,19.10
2022-09-28T11:40:05.567Z,19.10
2022-09-28T11:43:03.720Z,19.20
2022-09-28T11:45:48.861Z,19.20
2022-09-28T11:48:25.832Z,19.20
2022-09-28T11:50:58.786Z,19.20
2022-09-28T11:54:02.585Z,19.20
2022-09-28T11:56:40.179Z,19.20
2022-09-28T11:59:10.703Z,19.20
2022-09-28T12:01:51.851Z,19.20
2022-09-28T12:04:48.158Z,19.30
2022-09-28T12:07:37.868Z,19.30
2022-09-28T12:10:19.731Z,19.30
2022-09-28T12:13:10.177Z,19.30
2022-09-28T12:16:20.024Z,19.40
2022-09-28T12:18:49.079Z,19.40
2022-09-28T12:21:25.224Z,19.50
2022-09-28T12:23:56.935Z,19.50
2022-09-28T12:26:39.179Z,19.60
2022-09-28T12:29:26.269Z,19.60
2022-09-28T12:32:07.313Z,19.70
2022-09-28T12:34:34.169Z,19.70
2022-09-28T12:37:23.104Z,19.80
2022-09-28T12:40:22.419Z,19.80
2022-09-28T12:43:10.523Z,19.80
2022-09-28T12:46:09.706Z,19.90
2022-09-28T12:49:04.115Z,19.90
2022-09-28T12:51:57.581Z,19.90
2022-09-28T12:54:36.693Z,19.90
2022-09-28T12:57:30.577Z,19.90
2022-09-28T13:00:03.542Z,20.00
2022-09-28T13:02:39.194Z,20.00
2022-09-28T13:05:43.954Z,20.00
2022-09-28T13:08:15.082Z,20.00
2022-09-28T13:10:50.630Z,20.00
2022-09-28T13:13:54.313Z,20.00
2022-09-28T13:16:21.507Z,20.00
2022-09-28T13:19:01.986Z,20.00
2022-09-28T13:21:35.724Z,20.00
2022-09-28T13:24:27.896Z,20.00
2022-09-28T13:26:54.897Z,20.00
2022-09-28T13:29:23.597Z,19.90
2022-09-28T13:31:58.377Z,19.90
2022-09-28T13:34:30.906Z,20.00
2022-09-28T13:37:10.064Z,20.00
2022-09-28T13:39:46.040Z,20.00
2022-09-28T13:42:44.942Z,20.10
2022-09-28T13:45:20.921Z,20.10
2022-09-28T13:48:06.372Z,20.10
2022-09-28T13:50:54.991Z,20.10
2022-09-28T13:53:44.085Z,20.20
2022-09-28T13:56:42.611Z,20.20
2022-09-28T13:59:14.902Z,20.20
2022-09-28T14:01:51.393Z,20.20
2022-09-28T14:04:25.359Z,20.20
2022-09-28T14:06:57.502Z,20.30
2022-09-28T14:09:45.637Z,20.30
2022-09-28T14:12:46.743Z,20.30
2022-09-28T14:15:36.487Z,20.30
2022-09-28T14:18:33.562Z,20.30
2022-09-28T14:21:12.996Z,20.30
2022-09-28T14:24:06.681Z,20.30
2022-09-28T14:27:01.769Z,20.40
2022-09-28T14:29:36.277Z,20.40
2022-09-28T14:32:23.151Z,20.40
2022-09-28T14:35:05.819Z,20.40
2022-09-28T14:37:54.722Z,20.40
2022-09-28T14:41:10.631Z,20.40
2022-09-28T14:44:02.617Z,20.40
2022-09-28T14:46:37.352Z,20.40
2022-09-28T14:49:26.381Z,20.40
2022-09-28T14:51:53.100Z,20.40
2022-09-28T14:54:21.960Z,20.40
2022-09-28T14:56:58.880Z,20.40
2022-09-28T14:59:36.544Z,20.40
2022-09-28T15:02:15.424Z,20.40
2022-09-28T15:04:52.953Z,20.40
2022-09-28T15:07:21.422Z,20.40
2022-09-28T15:09:50.538Z,20.40
2022-09-28T15:12:24.528Z,20.40
2022-09-28T15:15:17.397Z,20.40
2022-09-28T15:17:54.320Z,20.40
2022-09-28T15:20:23.761Z,20.40
2022-09-28T15:22:57.776Z,20.50
2022-09-28T15:25:30.451Z,20.50
2022-09-28T15:28:00.990Z,20.50
2022-09-28T15:30:29.488Z,20.50
2022-09-28T15:33:18.052Z,20.50
2022-09-28T15:36:19.587Z,20.50
2022-09-28T15:38:57.562Z,20.50
2022-09-28T15:41:25.705Z,20.50
2022-09-28T15:44:29.499Z,20.50
2022-09-28T15:47:15.560Z,20.40
2022-09-28T15:49:57.200Z,20.40
2022-09-28T15:52:26.698Z,20.40
2022-09-28T15:54:54.237Z,20.40
2022-09-28T15:57:37.344Z,20.40
2022-09-28T16:00:25.800Z,20.40
2022-09-28T16:03:06.786Z,20.40
2022-09-28T16:05:46.239Z,20.40
2022-09-28T16:08:21.212Z,20.40
2022-09-28T16:10:56.911Z,20.40
2022-09-28T16:13:24.326Z,20.40
2022-09-28T16:15:58.130Z,20.40
2022-09-28T16:18:27.083Z,20.40
2022-09-28T16:20:56.847Z,20.40
2022-09-28T16:23:31.433Z,20.40
2022-09-28T16:26:08.021Z,20.40
2022-09-28T16:28:37.469Z,20.40
2022-09-28T16:31:05.753Z,20.40
2022-09-28T16:33:40.081Z,20.40
2022-09-28T16:36:14.303Z,20.40
2022-09-28T16:38:44.697Z,20.40
2022-09-28T16:41:13.551Z,20.40
2022-09-28T16:43:40.651Z,20.40
2022-09-28T16:46:09.921Z,20.40
2022-09-28T16:48:41.232Z,20.40
2022-09-28T16:51:08.103Z,20.40
2022-09-28T16:53:54.452Z,20.40
2022-09-28T16:56:21.873Z,20.30
2022-09-28T16:58:50.225Z,20.30
2022-09-28T17:01:17.192Z,20.30
2022-09-28T17:03:46.876Z,20.30
2022-09-28T17:06:15.180Z,20.30
2022-09-28T17:08:43.074Z,20.30
2022-09-28T17:11:22.759Z,20.30
2022-09-28T17:13:50.390Z,20.20
2022-09-28T17:16:42.552Z,20.20
2022-09-28T17:19:22.946Z,20.20
2022-09-28T17:21:51.145Z,20.10
2022-09-28T17:24:19.188Z,20.10
2022-09-28T17:26:49.098Z,20.10
2022-09-28T17:29:16.295Z,20.10
2022-09-28T17:31:44.133Z,20.00
2022-09-28T17:34:12.171Z,20.00
2022-09-28T17:36:41.335Z,20.00
2022-09-28T17:39:16.573Z,19.90
2022-09-28T17:41:43.476Z,19.90
2022-09-28T17:44:10.235Z,19.80
2022-09-28T17:46:39.554Z,19.80
2022-09-28T17:49:10.522Z,19.80
2022-09-28T17:51:38.422Z,19.70
2022-09-28T17:54:07.137Z,19.70
2022-09-28T17:56:35.758Z,19.70
2022-09-28T17:59:05.636Z,19.70
2022-09-28T18:01:34.719Z,19.60
2022-09-28T18:04:08.093Z,19.60
2022-09-28T18:06:37.057Z,19.60
2022-09-28T18:09:05.144Z,19.50
2022-09-28T18:11:33.785Z,19.50
2022-09-28T18:14:01.027Z,19.50
2022-09-28T18:16:29.115Z,19.50
2022-09-28T18:18:58.206Z,19.40
2022-09-28T18:21:25.137Z,19.40
2022-09-28T18:23:52.119Z,19.40
2022-09-28T18:26:19.747Z,19.30
2022-09-28T18:28:47.244Z,19.30
2022-09-28T18:31:16.212Z,19.30
2022-09-28T18:33:52.665Z,19.30
2022-09-28T18:36:19.576Z,19.20
2022-09-28T18:38:46.465Z,19.20
2022-09-28T18:41:15.889Z,19.20
2022-09-28T18:43:50.728Z,19.20
2022-09-28T18:46:18.446Z,19.10
2022-09-28T18:48:47.158Z,19.10
2022-09-28T18:51:14.773Z,19.10
2022-09-28T18:53:42.201Z,19.00
2022-09-28T18:56:12.093Z,19.00
2022-09-28T18:58:41.222Z,19.00
2022-09-28T19:01:30.803Z,18.90
2022-09-28T19:04:03.576Z,18.90
2022-09-28T19:06:31.825Z,18.80
2022-09-28T19:08:59.205Z,18.80
2022-09-28T19:11:27.133Z,18.80
2022-09-28T19:13:55.082Z,18.70
2022-09-28T19:16:24.810Z,18.70
2022-09-28T19:18:53.775Z,18.70
2022-09-28T19:21:22.669Z,18.70
2022-09-28T19:23:50.108Z,18.60
2022-09-28T19:26:21.011Z,18.60
2022-09-28T19:28:48.509Z,18.60
2022-09-28T19:31:15.984Z,18.50
2022-09-28T19:33:46.300Z,18.50
2022-09-28T19:36:18.249Z,18.50
2022-09-28T19:38:45.679Z,18.40
2022-09-28T19:41:39.031Z,18.40
2022-09-28T19:44:09.701Z,18.30
2022-09-28T19:46:38.870Z,18.30
2022-09-28T19:49:09.376Z,18.30
2022-09-28T19:51:38.765Z,18.20
2022-09-28T19:54:11.445Z,18.20
2022-09-28T19:56:38.348Z,18.20
2022-09-28T19:59:05.211Z,18.10
2022-09-28T20:01:32.337Z,18.10
2022-09-28T20:04:00.287Z,18.10
2022-09-28T20:06:28.201Z,18.10
2022-09-28T20:08:55.108Z,18.00
2022-09-28T20:11:21.872Z,18.00
2022-09-28T20:13:49.402Z,18.00
2022-09-28T20:16:18.519Z,18.00
2022-09-28T20:18:51.357Z,17.90
2022-09-28T20:21:24.945Z,17.90
2022-09-28T20:23:53.635Z,17.90
2022-09-28T20:26:20.663Z,17.90
2022-09-28T20:28:47.521Z,17.90
2022-09-28T20:31:17.158Z,17.80
2022-09-28T20:33:44.692Z,17.80
2022-09-28T20:36:14.816Z,17.80
2022-09-28T20:38:42.229Z,17.80
2022-09-28T20:41:13.529Z,17.80
2022-09-28T20:43:41.101Z,17.70
2022-09-28T20:46:10.401Z,17.70
2022-09-28T20:48:37.471Z,17.70
2022-09-28T20:51:10.138Z,17.70
2022-09-28T20:53:38.988Z,17.60
2022-09-28T20:56:22.827Z,17.60
2022-09-28T20:58:51.057Z,17.60
2022-09-28T21:01:26.279Z,17.60
2022-09-28T21:03:57.978Z,17.50
2022-09-28T21:06:30.035Z,17.50
2022-09-28T21:08:57.098Z,17.50
2022-09-28T21:11:25.700Z,17.50
2022-09-28T21:13:54.319Z,17.50
2022-09-28T21:16:21.365Z,17.40
2022-09-28T21:18:48.351Z,17.40
2022-09-28T21:21:17.671Z,17.40
2022-09-28T21:23:45.105Z,17.30
2022-09-28T21:26:26.695Z,17.30
2022-09-28T21:29:01.659Z,17.30
2022-09-28T21:31:40.372Z,17.30
2022-09-28T21:34:11.556Z,17.30
2022-09-28T21:36:38.538Z,17.30
2022-09-28T21:39:10.111Z,17.20
2022-09-28T21:41:37.481Z,17.20
2022-09-28T21:44:04.285Z,17.20
2022-09-28T21:46:34.287Z,17.20
2022-09-28T21:49:02.901Z,17.10
2022-09-28T21:51:30.194Z,17.10
2022-09-28T21:53:57.176Z,17.10
2022-09-28T21:56:24.091Z,17.00
2022-09-28T21:58:51.256Z,17.00
2022-09-28T22:01:20.968Z,17.00
2022-09-28T22:03:51.303Z,16.90
2022-09-28T22:06:20.137Z,16.90
2022-09-28T22:08:47.930Z,16.90
2022-09-28T22:11:17.647Z,16.80
2022-09-28T22:13:45.693Z,16.80
2022-09-28T22:16:14.481Z,16.70
2022-09-28T22:18:41.642Z,16.80
2022-09-28T22:21:12.609Z,16.70
2022-09-28T22:23:40.607Z,16.70
2022-09-28T22:26:07.701Z,16.70
2022-09-28T22:28:35.226Z,16.70
2022-09-28T22:31:02.171Z,16.60
2022-09-28T22:33:29.240Z,16.60
2022-09-28T22:35:56.107Z,16.60
2022-09-28T22:38:24.702Z,16.60
2022-09-28T22:40:54.569Z,16.60
2022-09-28T22:43:25.946Z,16.50
2022-09-28T22:46:06.061Z,16.50
2022-09-28T22:48:33.654Z,16.50
2022-09-28T22:51:01.863Z,16.40
2022-09-28T22:53:29.522Z,16.50
2022-09-28T22:55:58.415Z,16.40
2022-09-28T22:58:25.319Z,16.40
2022-09-28T23:00:52.194Z,16.40
2022-09-28T23:03:19.112Z,16.40
2022-09-28T23:05:54.112Z,16.40
2022-09-28T23:08:21.723Z,16.40
2022-09-28T23:10:48.785Z,16.40
2022-09-28T23:13:16.343Z,16.30
2022-09-28T23:15:43.396Z,16.30
2022-09-28T23:18:10.279Z,16.20
2022-09-28T23:20:37.172Z,16.20
2022-09-28T23:23:04.003Z,16.20
2022-09-28T23:25:30.856Z,16.20
2022-09-28T23:27:57.655Z,16.20
2022-09-28T23:30:24.619Z,16.20
2022-09-28T23:32:54.563Z,16.20
2022-09-28T23:35:21.603Z,16.20
2022-09-28T23:37:51.742Z,16.20
2022-09-28T23:40:18.885Z,16.20
2022-09-28T23:42:45.796Z,16.20
2022-09-28T23:45:12.848Z,16.30
2022-09-28T23:47:39.726Z,16.20
2022-09-28T23:50:07.265Z,16.20
2022-09-28T23:52:35.236Z,16.20
2022-09-28T23:55:02.086Z,16.20
2022-09-28T23:57:28.910Z,16.20
2022-09-28T23:59:55.740Z,16.10
